sensor_id;sensor_type;location;lat;lon;timestamp;P1;durP1;ratioP1;P2;durP2;ratioP2
35679;SDS011;21803;53.586;10.040;2023-05-07T04:02:48;2.65;;;1.30;;
35679;SDS011;21803;53.586;10.040;2023-05-07T04:05:15;2.28;;;1.38;;
35679;SDS011;21803;53.586;10.040;2023-05-07T04:07:41;2.05;;;1.20;;
35679;SDS011;21803;53.586;10.040;2023-05-07T04:10:06;3.83;;;1.33;;
35679;SDS011;21803;53.586;10.040;2023-05-07T04:12:32;1.95;;;1.40;;
35679;SDS011;21803;53.586;10.040;2023-05-07T04:14:58;1.83;;;1.20;;
35679;SDS011;21803;53.586;10.040;2023-05-07T04:17:23;2.78;;;1.42;;
35679;SDS011;21803;53.586;10.040;2023-05-07T04:19:49;2.22;;;1.30;;
35679;SDS011;21803;53.586;10.040;2023-05-07T04:22:14;4.03;;;1.75;;
35679;SDS011;21803;53.586;10.040;2023-05-07T04:24:40;5.00;;;1.60;;
35679;SDS011;21803;53.586;10.040;2023-05-07T04:27:05;3.70;;;1.08;;
35679;SDS011;21803;53.586;10.040;2023-05-07T04:29:31;4.57;;;1.70;;
35679;SDS011;21803;53.586;10.040;2023-05-07T04:31:56;2.92;;;1.50;;
35679;SDS011;21803;53.586;10.040;2023-05-07T04:34:23;3.78;;;1.40;;
35679;SDS011;21803;53.586;10.040;2023-05-07T04:36:49;2.90;;;1.30;;
35679;SDS011;21803;53.586;10.040;2023-05-07T04:39:14;2.20;;;1.23;;
35679;SDS011;21803;53.586;10.040;2023-05-07T04:41:40;7.60;;;1.48;;
35679;SDS011;21803;53.586;10.040;2023-05-07T04:44:05;4.88;;;1.60;;
35679;SDS011;21803;53.586;10.040;2023-05-07T04:46:31;2.95;;;1.38;;
35679;SDS011;21803;53.586;10.040;2023-05-07T04:48:57;6.13;;;1.58;;
35679;SDS011;21803;53.586;10.040;2023-05-07T04:51:22;6.45;;;1.60;;
35679;SDS011;21803;53.586;10.040;2023-05-07T04:53:48;3.22;;;1.40;;
35679;SDS011;21803;53.586;10.040;2023-05-07T04:56:14;3.60;;;1.48;;
35679;SDS011;21803;53.586;10.040;2023-05-07T04:58:39;3.22;;;2.00;;
35679;SDS011;21803;53.586;10.040;2023-05-07T05:01:05;4.57;;;1.40;;
35679;SDS011;21803;53.586;10.040;2023-05-07T05:03:30;2.95;;;1.30;;
35679;SDS011;21803;53.586;10.040;2023-05-07T05:05:56;2.67;;;1.45;;
35679;SDS011;21803;53.586;10.040;2023-05-07T05:08:24;4.72;;;1.40;;
35679;SDS011;21803;53.586;10.040;2023-05-07T05:10:49;3.88;;;1.50;;
35679;SDS011;21803;53.586;10.040;2023-05-07T05:13:15;2.63;;;1.30;;
35679;SDS011;21803;53.586;10.040;2023-05-07T05:15:41;3.10;;;1.52;;
35679;SDS011;21803;53.586;10.040;2023-05-07T05:18:06;2.00;;;1.35;;
35679;SDS011;21803;53.586;10.040;2023-05-07T05:20:32;5.03;;;1.50;;
35679;SDS011;21803;53.586;10.040;2023-05-07T05:22:58;2.08;;;1.20;;
35679;SDS011;21803;53.586;10.040;2023-05-07T05:25:23;3.00;;;1.30;;
35679;SDS011;21803;53.586;10.040;2023-05-07T05:27:49;2.08;;;1.42;;
35679;SDS011;21803;53.586;10.040;2023-05-07T05:30:14;3.80;;;1.45;;
35679;SDS011;21803;53.586;10.040;2023-05-07T05:32:40;2.35;;;1.50;;
35679;SDS011;21803;53.586;10.040;2023-05-07T05:35:05;2.38;;;1.35;;
35679;SDS011;21803;53.586;10.040;2023-05-07T05:37:31;1.60;;;1.10;;
35679;SDS011;21803;53.586;10.040;2023-05-07T05:39:57;2.55;;;1.17;;
35679;SDS011;21803;53.586;10.040;2023-05-07T05:42:22;2.72;;;1.50;;
35679;SDS011;21803;53.586;10.040;2023-05-07T05:44:48;2.85;;;1.00;;
35679;SDS011;21803;53.586;10.040;2023-05-07T05:47:14;3.97;;;1.70;;
35679;SDS011;21803;53.586;10.040;2023-05-07T05:49:39;2.25;;;1.35;;
35679;SDS011;21803;53.586;10.040;2023-05-07T05:52:05;2.45;;;1.00;;
35679;SDS011;21803;53.586;10.040;2023-05-07T05:54:30;2.08;;;1.30;;
35679;SDS011;21803;53.586;10.040;2023-05-07T05:56:56;1.48;;;1.02;;
35679;SDS011;21803;53.586;10.040;2023-05-07T05:59:21;2.05;;;1.50;;
35679;SDS011;21803;53.586;10.040;2023-05-07T06:01:47;1.30;;;1.05;;
35679;SDS011;21803;53.586;10.040;2023-05-07T06:04:13;2.42;;;1.30;;
35679;SDS011;21803;53.586;10.040;2023-05-07T06:06:38;2.38;;;1.30;;
35679;SDS011;21803;53.586;10.040;2023-05-07T06:09:04;2.45;;;1.30;;
35679;SDS011;21803;53.586;10.040;2023-05-07T06:11:29;2.22;;;1.05;;
35679;SDS011;21803;53.586;10.040;2023-05-07T06:13:56;3.47;;;1.40;;
35679;SDS011;21803;53.586;10.040;2023-05-07T06:16:22;2.83;;;1.30;;
35679;SDS011;21803;53.586;10.040;2023-05-07T06:18:47;3.03;;;1.40;;
35679;SDS011;21803;53.586;10.040;2023-05-07T06:21:13;2.13;;;1.10;;
35679;SDS011;21803;53.586;10.040;2023-05-07T06:23:40;1.65;;;1.15;;
35679;SDS011;21803;53.586;10.040;2023-05-07T06:26:05;2.17;;;1.27;;
35679;SDS011;21803;53.586;10.040;2023-05-07T06:28:31;2.47;;;1.05;;
35679;SDS011;21803;53.586;10.040;2023-05-07T06:31:13;2.03;;;1.30;;
35679;SDS011;21803;53.586;10.040;2023-05-07T06:33:45;1.55;;;1.23;;
35679;SDS011;21803;53.586;10.040;2023-05-07T06:36:11;1.52;;;1.20;;
35679;SDS011;21803;53.586;10.040;2023-05-07T06:38:36;2.53;;;1.40;;
35679;SDS011;21803;53.586;10.040;2023-05-07T06:41:02;1.58;;;1.20;;
35679;SDS011;21803;53.586;10.040;2023-05-07T06:43:27;1.13;;;1.00;;
35679;SDS011;21803;53.586;10.040;2023-05-07T06:45:53;1.73;;;1.15;;
35679;SDS011;21803;53.586;10.040;2023-05-07T06:48:19;2.55;;;1.10;;
35679;SDS011;21803;53.586;10.040;2023-05-07T06:50:45;2.10;;;1.23;;
35679;SDS011;21803;53.586;10.040;2023-05-07T06:53:10;1.33;;;1.10;;
35679;SDS011;21803;53.586;10.040;2023-05-07T06:55:36;2.55;;;1.50;;
35679;SDS011;21803;53.586;10.040;2023-05-07T06:58:03;1.80;;;1.17;;
35679;SDS011;21803;53.586;10.040;2023-05-07T07:00:29;4.30;;;1.08;;
35679;SDS011;21803;53.586;10.040;2023-05-07T07:02:55;1.95;;;1.17;;
35679;SDS011;21803;53.586;10.040;2023-05-07T07:05:21;2.70;;;1.10;;
35679;SDS011;21803;53.586;10.040;2023-05-07T07:07:47;1.50;;;1.17;;
35679;SDS011;21803;53.586;10.040;2023-05-07T07:10:21;1.77;;;1.20;;
35679;SDS011;21803;53.586;10.040;2023-05-07T07:12:47;2.00;;;1.30;;
35679;SDS011;21803;53.586;10.040;2023-05-07T07:15:13;1.75;;;1.30;;
35679;SDS011;21803;53.586;10.040;2023-05-07T07:17:39;2.05;;;1.00;;
35679;SDS011;21803;53.586;10.040;2023-05-07T07:20:05;2.40;;;1.20;;
35679;SDS011;21803;53.586;10.040;2023-05-07T07:22:31;1.58;;;1.20;;
35679;SDS011;21803;53.586;10.040;2023-05-07T07:24:56;1.83;;;1.10;;
35679;SDS011;21803;53.586;10.040;2023-05-07T07:27:22;1.98;;;1.30;;
35679;SDS011;21803;53.586;10.040;2023-05-07T07:29:48;1.60;;;1.05;;
35679;SDS011;21803;53.586;10.040;2023-05-07T07:32:14;2.13;;;1.10;;
35679;SDS011;21803;53.586;10.040;2023-05-07T07:34:39;2.13;;;1.20;;
35679;SDS011;21803;53.586;10.040;2023-05-07T07:37:05;1.33;;;1.10;;
35679;SDS011;21803;53.586;10.040;2023-05-07T07:39:31;2.75;;;1.20;;
35679;SDS011;21803;53.586;10.040;2023-05-07T07:41:57;2.70;;;1.52;;
35679;SDS011;21803;53.586;10.040;2023-05-07T07:44:23;1.20;;;1.00;;
35679;SDS011;21803;53.586;10.040;2023-05-07T07:46:48;1.73;;;1.20;;
35679;SDS011;21803;53.586;10.040;2023-05-07T07:49:15;1.52;;;1.10;;
35679;SDS011;21803;53.586;10.040;2023-05-07T07:51:41;1.60;;;1.00;;
35679;SDS011;21803;53.586;10.040;2023-05-07T07:54:06;1.48;;;1.10;;
35679;SDS011;21803;53.586;10.040;2023-05-07T07:56:32;1.98;;;1.23;;
35679;SDS011;21803;53.586;10.040;2023-05-07T07:59:01;1.58;;;1.20;;
35679;SDS011;21803;53.586;10.040;2023-05-07T08:01:26;1.23;;;1.10;;
35679;SDS011;21803;53.586;10.040;2023-05-07T08:03:54;1.73;;;1.10;;
35679;SDS011;21803;53.586;10.040;2023-05-07T08:06:20;3.38;;;1.23;;
35679;SDS011;21803;53.586;10.040;2023-05-07T08:08:45;2.50;;;1.15;;
35679;SDS011;21803;53.586;10.040;2023-05-07T08:11:11;2.35;;;1.20;;
35679;SDS011;21803;53.586;10.040;2023-05-07T08:13:36;3.15;;;1.05;;
35679;SDS011;21803;53.586;10.040;2023-05-07T08:16:03;2.35;;;1.20;;
35679;SDS011;21803;53.586;10.040;2023-05-07T08:18:29;4.18;;;1.20;;
35679;SDS011;21803;53.586;10.040;2023-05-07T08:20:55;2.83;;;1.30;;
35679;SDS011;21803;53.586;10.040;2023-05-07T08:23:21;2.22;;;1.10;;
35679;SDS011;21803;53.586;10.040;2023-05-07T08:25:47;1.77;;;1.10;;
35679;SDS011;21803;53.586;10.040;2023-05-07T08:28:13;3.72;;;1.30;;
35679;SDS011;21803;53.586;10.040;2023-05-07T08:30:38;2.38;;;0.90;;
35679;SDS011;21803;53.586;10.040;2023-05-07T08:33:04;2.30;;;1.20;;
35679;SDS011;21803;53.586;10.040;2023-05-07T08:35:29;1.60;;;1.23;;
35679;SDS011;21803;53.586;10.040;2023-05-07T08:37:55;2.83;;;1.02;;
35679;SDS011;21803;53.586;10.040;2023-05-07T08:40:25;1.25;;;1.10;;
35679;SDS011;21803;53.586;10.040;2023-05-07T08:42:52;4.00;;;1.30;;
35679;SDS011;21803;53.586;10.040;2023-05-07T08:45:18;2.33;;;1.20;;
35679;SDS011;21803;53.586;10.040;2023-05-07T08:47:49;2.40;;;0.98;;
35679;SDS011;21803;53.586;10.040;2023-05-07T08:50:17;3.08;;;1.00;;
35679;SDS011;21803;53.586;10.040;2023-05-07T08:52:44;2.42;;;1.00;;
35679;SDS011;21803;53.586;10.040;2023-05-07T08:55:10;2.13;;;1.20;;
35679;SDS011;21803;53.586;10.040;2023-05-07T08:57:36;1.92;;;1.17;;
35679;SDS011;21803;53.586;10.040;2023-05-07T09:00:02;2.35;;;1.20;;
35679;SDS011;21803;53.586;10.040;2023-05-07T09:02:29;1.13;;;0.90;;
35679;SDS011;21803;53.586;10.040;2023-05-07T09:04:54;1.52;;;0.98;;
35679;SDS011;21803;53.586;10.040;2023-05-07T09:07:20;2.83;;;1.08;;
35679;SDS011;21803;53.586;10.040;2023-05-07T09:09:47;4.20;;;1.20;;
35679;SDS011;21803;53.586;10.040;2023-05-07T09:12:12;1.80;;;0.88;;
35679;SDS011;21803;53.586;10.040;2023-05-07T09:14:38;1.58;;;1.00;;
35679;SDS011;21803;53.586;10.040;2023-05-07T09:17:04;3.40;;;1.10;;
35679;SDS011;21803;53.586;10.040;2023-05-07T09:19:30;1.52;;;1.00;;
35679;SDS011;21803;53.586;10.040;2023-05-07T09:21:59;3.63;;;1.23;;
35679;SDS011;21803;53.586;10.040;2023-05-07T09:24:28;2.90;;;1.00;;
35679;SDS011;21803;53.586;10.040;2023-05-07T09:26:58;1.35;;;1.10;;
35679;SDS011;21803;53.586;10.040;2023-05-07T09:29:25;4.75;;;1.50;;
35679;SDS011;21803;53.586;10.040;2023-05-07T09:31:50;5.03;;;1.20;;
35679;SDS011;21803;53.586;10.040;2023-05-07T09:34:16;5.60;;;2.28;;
35679;SDS011;21803;53.586;10.040;2023-05-07T09:36:41;2.88;;;1.52;;
35679;SDS011;21803;53.586;10.040;2023-05-07T09:39:07;2.88;;;0.98;;
35679;SDS011;21803;53.586;10.040;2023-05-07T09:41:32;2.20;;;1.27;;
35679;SDS011;21803;53.586;10.040;2023-05-07T09:44:07;4.47;;;1.40;;
35679;SDS011;21803;53.586;10.040;2023-05-07T09:46:34;1.60;;;1.05;;
35679;SDS011;21803;53.586;10.040;2023-05-07T09:49:02;5.45;;;1.55;;
35679;SDS011;21803;53.586;10.040;2023-05-07T09:54:03;3.67;;;1.38;;
35679;SDS011;21803;53.586;10.040;2023-05-07T09:56:30;4.70;;;1.40;;
35679;SDS011;21803;53.586;10.040;2023-05-07T09:58:57;4.00;;;1.40;;
35679;SDS011;21803;53.586;10.040;2023-05-07T10:01:28;6.82;;;1.48;;
35679;SDS011;21803;53.586;10.040;2023-05-07T10:03:55;7.50;;;1.67;;
35679;SDS011;21803;53.586;10.040;2023-05-07T10:06:23;3.85;;;1.60;;
35679;SDS011;21803;53.586;10.040;2023-05-07T10:08:53;3.90;;;1.48;;
35679;SDS011;21803;53.586;10.040;2023-05-07T10:11:19;4.68;;;1.58;;
35679;SDS011;21803;53.586;10.040;2023-05-07T10:13:46;4.50;;;1.63;;
35679;SDS011;21803;53.586;10.040;2023-05-07T10:16:13;5.35;;;1.60;;
35679;SDS011;21803;53.586;10.040;2023-05-07T10:18:40;3.85;;;1.63;;
35679;SDS011;21803;53.586;10.040;2023-05-07T10:21:16;4.70;;;1.50;;
35679;SDS011;21803;53.586;10.040;2023-05-07T10:23:43;2.78;;;1.42;;
35679;SDS011;21803;53.586;10.040;2023-05-07T10:26:11;4.55;;;1.77;;
35679;SDS011;21803;53.586;10.040;2023-05-07T10:28:38;3.88;;;1.45;;
35679;SDS011;21803;53.586;10.040;2023-05-07T10:34:02;4.13;;;2.17;;
35679;SDS011;21803;53.586;10.040;2023-05-07T10:36:35;3.38;;;1.65;;
35679;SDS011;21803;53.586;10.040;2023-05-07T10:39:01;4.00;;;1.65;;
35679;SDS011;21803;53.586;10.040;2023-05-07T10:41:26;8.75;;;1.67;;
35679;SDS011;21803;53.586;10.040;2023-05-07T10:43:52;3.17;;;1.55;;
35679;SDS011;21803;53.586;10.040;2023-05-07T10:46:18;2.88;;;1.40;;
35679;SDS011;21803;53.586;10.040;2023-05-07T10:51:25;2.72;;;1.38;;
35679;SDS011;21803;53.586;10.040;2023-05-07T10:56:42;3.58;;;1.65;;
35679;SDS011;21803;53.586;10.040;2023-05-07T10:59:41;2.97;;;1.30;;
35679;SDS011;21803;53.586;10.040;2023-05-07T11:02:05;3.05;;;1.58;;
35679;SDS011;21803;53.586;10.040;2023-05-07T11:04:32;4.65;;;1.48;;
35679;SDS011;21803;53.586;10.040;2023-05-07T11:10:04;5.47;;;1.60;;
35679;SDS011;21803;53.586;10.040;2023-05-07T11:15:01;3.05;;;1.38;;
35679;SDS011;21803;53.586;10.040;2023-05-07T11:17:28;2.90;;;1.65;;
35679;SDS011;21803;53.586;10.040;2023-05-07T11:19:56;1.92;;;1.20;;
35679;SDS011;21803;53.586;10.040;2023-05-07T11:25:01;3.17;;;1.50;;
35679;SDS011;21803;53.586;10.040;2023-05-07T11:27:28;2.53;;;1.45;;
35679;SDS011;21803;53.586;10.040;2023-05-07T11:29:54;2.70;;;1.20;;
35679;SDS011;21803;53.586;10.040;2023-05-07T11:32:27;3.65;;;1.50;;
35679;SDS011;21803;53.586;10.040;2023-05-07T11:34:54;3.13;;;1.40;;
35679;SDS011;21803;53.586;10.040;2023-05-07T11:37:21;2.78;;;1.20;;
35679;SDS011;21803;53.586;10.040;2023-05-07T11:39:48;4.10;;;1.60;;
35679;SDS011;21803;53.586;10.040;2023-05-07T11:42:32;3.72;;;1.60;;
35679;SDS011;21803;53.586;10.040;2023-05-07T11:45:05;2.13;;;1.40;;
35679;SDS011;21803;53.586;10.040;2023-05-07T11:47:32;2.65;;;1.55;;
35679;SDS011;21803;53.586;10.040;2023-05-07T11:50:07;3.05;;;1.42;;
35679;SDS011;21803;53.586;10.040;2023-05-07T11:52:33;3.17;;;1.40;;
35679;SDS011;21803;53.586;10.040;2023-05-07T11:55:00;3.28;;;1.67;;
35679;SDS011;21803;53.586;10.040;2023-05-07T11:57:27;2.35;;;1.30;;
35679;SDS011;21803;53.586;10.040;2023-05-07T11:59:53;3.55;;;1.27;;
35679;SDS011;21803;53.586;10.040;2023-05-07T12:02:19;1.70;;;1.20;;
35679;SDS011;21803;53.586;10.040;2023-05-07T12:04:45;3.42;;;1.48;;
35679;SDS011;21803;53.586;10.040;2023-05-07T12:07:11;2.40;;;1.60;;
35679;SDS011;21803;53.586;10.040;2023-05-07T12:09:43;3.63;;;1.27;;
35679;SDS011;21803;53.586;10.040;2023-05-07T12:12:09;5.03;;;1.55;;
35679;SDS011;21803;53.586;10.040;2023-05-07T12:14:38;3.72;;;1.33;;
35679;SDS011;21803;53.586;10.040;2023-05-07T12:17:08;4.82;;;1.70;;
35679;SDS011;21803;53.586;10.040;2023-05-07T12:19:35;2.92;;;1.20;;
35679;SDS011;21803;53.586;10.040;2023-05-07T12:22:04;4.28;;;1.50;;
35679;SDS011;21803;53.586;10.040;2023-05-07T12:24:47;3.53;;;1.38;;
35679;SDS011;21803;53.586;10.040;2023-05-07T12:27:15;1.98;;;1.20;;
35679;SDS011;21803;53.586;10.040;2023-05-07T12:29:48;4.53;;;1.30;;
35679;SDS011;21803;53.586;10.040;2023-05-07T12:32:15;3.40;;;1.40;;
35679;SDS011;21803;53.586;10.040;2023-05-07T12:34:44;5.95;;;1.60;;
35679;SDS011;21803;53.586;10.040;2023-05-07T12:37:11;3.85;;;1.63;;
35679;SDS011;21803;53.586;10.040;2023-05-07T12:39:38;2.60;;;1.20;;
35679;SDS011;21803;53.586;10.040;2023-05-07T12:42:09;3.13;;;1.00;;
35679;SDS011;21803;53.586;10.040;2023-05-07T12:44:41;2.45;;;1.13;;
35679;SDS011;21803;53.586;10.040;2023-05-07T12:47:10;4.78;;;1.52;;
35679;SDS011;21803;53.586;10.040;2023-05-07T12:49:35;4.50;;;1.80;;
35679;SDS011;21803;53.586;10.040;2023-05-07T12:52:03;1.85;;;1.40;;
35679;SDS011;21803;53.586;10.040;2023-05-07T12:54:33;2.90;;;1.23;;
35679;SDS011;21803;53.586;10.040;2023-05-07T12:57:00;5.18;;;1.50;;
35679;SDS011;21803;53.586;10.040;2023-05-07T12:59:34;4.25;;;1.48;;
35679;SDS011;21803;53.586;10.040;2023-05-07T13:02:04;3.33;;;1.40;;
35679;SDS011;21803;53.586;10.040;2023-05-07T13:04:31;2.28;;;1.20;;
35679;SDS011;21803;53.586;10.040;2023-05-07T13:06:56;1.75;;;1.27;;
35679;SDS011;21803;53.586;10.040;2023-05-07T13:09:22;5.68;;;1.30;;
35679;SDS011;21803;53.586;10.040;2023-05-07T13:11:48;3.85;;;1.48;;
35679;SDS011;21803;53.586;10.040;2023-05-07T13:14:13;2.28;;;1.17;;
35679;SDS011;21803;53.586;10.040;2023-05-07T13:16:39;2.25;;;1.33;;
35679;SDS011;21803;53.586;10.040;2023-05-07T13:19:05;2.55;;;1.40;;
35679;SDS011;21803;53.586;10.040;2023-05-07T13:21:30;2.40;;;1.20;;
35679;SDS011;21803;53.586;10.040;2023-05-07T13:23:59;2.63;;;1.30;;
35679;SDS011;21803;53.586;10.040;2023-05-07T13:26:24;1.10;;;1.00;;
35679;SDS011;21803;53.586;10.040;2023-05-07T13:28:51;3.78;;;1.38;;
35679;SDS011;21803;53.586;10.040;2023-05-07T13:31:17;1.52;;;1.35;;
35679;SDS011;21803;53.586;10.040;2023-05-07T13:33:43;1.70;;;1.10;;
35679;SDS011;21803;53.586;10.040;2023-05-07T13:36:08;2.58;;;1.20;;
35679;SDS011;21803;53.586;10.040;2023-05-07T13:38:34;3.25;;;1.17;;
35679;SDS011;21803;53.586;10.040;2023-05-07T13:41:00;1.88;;;1.10;;
35679;SDS011;21803;53.586;10.040;2023-05-07T13:43:25;3.40;;;1.10;;
35679;SDS011;21803;53.586;10.040;2023-05-07T13:45:51;1.80;;;1.10;;
35679;SDS011;21803;53.586;10.040;2023-05-07T13:48:16;2.00;;;1.00;;
35679;SDS011;21803;53.586;10.040;2023-05-07T13:50:42;1.98;;;1.20;;
35679;SDS011;21803;53.586;10.040;2023-05-07T13:53:07;4.30;;;1.58;;
35679;SDS011;21803;53.586;10.040;2023-05-07T13:55:33;1.92;;;1.20;;
35679;SDS011;21803;53.586;10.040;2023-05-07T13:58:00;2.03;;;1.08;;
35679;SDS011;21803;53.586;10.040;2023-05-07T14:00:26;2.13;;;1.30;;
35679;SDS011;21803;53.586;10.040;2023-05-07T14:02:53;2.00;;;1.13;;
35679;SDS011;21803;53.586;10.040;2023-05-07T14:05:19;1.40;;;1.08;;
35679;SDS011;21803;53.586;10.040;2023-05-07T14:07:44;1.45;;;1.00;;
35679;SDS011;21803;53.586;10.040;2023-05-07T14:10:10;3.03;;;1.10;;
35679;SDS011;21803;53.586;10.040;2023-05-07T14:12:36;1.55;;;1.10;;
35679;SDS011;21803;53.586;10.040;2023-05-07T14:15:01;1.30;;;1.10;;
35679;SDS011;21803;53.586;10.040;2023-05-07T14:17:27;1.30;;;1.10;;
35679;SDS011;21803;53.586;10.040;2023-05-07T14:19:53;1.88;;;1.02;;
35679;SDS011;21803;53.586;10.040;2023-05-07T14:22:20;1.60;;;1.15;;
35679;SDS011;21803;53.586;10.040;2023-05-07T14:24:46;2.03;;;1.00;;
35679;SDS011;21803;53.586;10.040;2023-05-07T14:27:12;1.10;;;0.90;;
35679;SDS011;21803;53.586;10.040;2023-05-07T14:29:37;2.92;;;1.00;;
35679;SDS011;21803;53.586;10.040;2023-05-07T14:32:03;1.40;;;1.00;;
35679;SDS011;21803;53.586;10.040;2023-05-07T14:34:29;3.05;;;1.20;;
35679;SDS011;21803;53.586;10.040;2023-05-07T14:36:54;1.30;;;1.00;;
35679;SDS011;21803;53.586;10.040;2023-05-07T14:39:20;1.50;;;1.08;;
35679;SDS011;21803;53.586;10.040;2023-05-07T14:41:46;2.17;;;0.90;;
35679;SDS011;21803;53.586;10.040;2023-05-07T14:44:11;1.55;;;1.10;;
35679;SDS011;21803;53.586;10.040;2023-05-07T14:46:37;2.38;;;1.20;;
35679;SDS011;21803;53.586;10.040;2023-05-07T14:49:02;2.67;;;0.90;;
35679;SDS011;21803;53.586;10.040;2023-05-07T14:51:28;1.60;;;1.00;;
35679;SDS011;21803;53.586;10.040;2023-05-07T14:53:54;1.40;;;1.02;;
35679;SDS011;21803;53.586;10.040;2023-05-07T14:56:19;0.98;;;0.90;;
35679;SDS011;21803;53.586;10.040;2023-05-07T14:58:46;1.83;;;1.20;;
35679;SDS011;21803;53.586;10.040;2023-05-07T15:01:13;1.30;;;0.90;;
35679;SDS011;21803;53.586;10.040;2023-05-07T15:03:38;3.40;;;1.35;;
35679;SDS011;21803;53.586;10.040;2023-05-07T15:06:04;1.00;;;0.90;;
35679;SDS011;21803;53.586;10.040;2023-05-07T15:08:30;0.95;;;0.90;;
35679;SDS011;21803;53.586;10.040;2023-05-07T15:10:56;3.20;;;1.00;;
35679;SDS011;21803;53.586;10.040;2023-05-07T15:13:21;2.55;;;1.30;;
35679;SDS011;21803;53.586;10.040;2023-05-07T15:15:47;0.80;;;0.80;;
35679;SDS011;21803;53.586;10.040;2023-05-07T15:18:14;0.93;;;0.80;;
35679;SDS011;21803;53.586;10.040;2023-05-07T15:20:40;0.98;;;0.77;;
35679;SDS011;21803;53.586;10.040;2023-05-07T15:23:06;0.88;;;0.82;;
35679;SDS011;21803;53.586;10.040;2023-05-07T15:25:36;1.20;;;0.90;;
35679;SDS011;21803;53.586;10.040;2023-05-07T15:28:02;1.50;;;1.10;;
35679;SDS011;21803;53.586;10.040;2023-05-07T15:30:28;1.67;;;1.00;;
35679;SDS011;21803;53.586;10.040;2023-05-07T15:32:54;0.90;;;0.80;;
35679;SDS011;21803;53.586;10.040;2023-05-07T15:35:19;1.30;;;0.93;;
35679;SDS011;21803;53.586;10.040;2023-05-07T15:37:47;1.40;;;0.93;;
35679;SDS011;21803;53.586;10.040;2023-05-07T15:40:14;1.38;;;0.90;;
35679;SDS011;21803;53.586;10.040;2023-05-07T15:42:40;2.45;;;0.98;;
35679;SDS011;21803;53.586;10.040;2023-05-07T15:45:05;1.52;;;1.08;;
35679;SDS011;21803;53.586;10.040;2023-05-07T15:47:32;1.10;;;1.00;;
35679;SDS011;21803;53.586;10.040;2023-05-07T15:49:59;2.50;;;1.10;;
35679;SDS011;21803;53.586;10.040;2023-05-07T15:52:25;2.10;;;1.10;;
35679;SDS011;21803;53.586;10.040;2023-05-07T15:54:52;1.38;;;0.80;;
35679;SDS011;21803;53.586;10.040;2023-05-07T15:57:17;1.88;;;1.00;;
35679;SDS011;21803;53.586;10.040;2023-05-07T15:59:43;1.17;;;0.95;;
35679;SDS011;21803;53.586;10.040;2023-05-07T16:02:08;0.85;;;0.80;;
35679;SDS011;21803;53.586;10.040;2023-05-07T16:04:34;1.08;;;0.80;;
35679;SDS011;21803;53.586;10.040;2023-05-07T16:07:00;1.10;;;0.93;;
35679;SDS011;21803;53.586;10.040;2023-05-07T16:09:25;1.50;;;1.00;;
35679;SDS011;21803;53.586;10.040;2023-05-07T16:11:53;1.48;;;0.85;;
35679;SDS011;21803;53.586;10.040;2023-05-07T16:14:18;1.42;;;0.90;;
35679;SDS011;21803;53.586;10.040;2023-05-07T16:16:44;1.80;;;0.70;;
35679;SDS011;21803;53.586;10.040;2023-05-07T16:19:09;1.20;;;1.00;;
35679;SDS011;21803;53.586;10.040;2023-05-07T16:21:35;1.25;;;0.93;;
35679;SDS011;21803;53.586;10.040;2023-05-07T16:24:01;1.00;;;0.98;;
35679;SDS011;21803;53.586;10.040;2023-05-07T16:26:26;1.83;;;0.90;;
35679;SDS011;21803;53.586;10.040;2023-05-07T16:28:52;1.60;;;0.90;;
35679;SDS011;21803;53.586;10.040;2023-05-07T16:31:17;0.90;;;0.80;;
35679;SDS011;21803;53.586;10.040;2023-05-07T16:33:43;1.70;;;1.00;;
35679;SDS011;21803;53.586;10.040;2023-05-07T16:36:09;1.55;;;1.00;;
35679;SDS011;21803;53.586;10.040;2023-05-07T16:38:35;1.08;;;0.95;;
35679;SDS011;21803;53.586;10.040;2023-05-07T16:41:01;1.08;;;0.80;;
35679;SDS011;21803;53.586;10.040;2023-05-07T16:43:26;1.20;;;0.90;;
35679;SDS011;21803;53.586;10.040;2023-05-07T16:45:52;1.13;;;1.00;;
35679;SDS011;21803;53.586;10.040;2023-05-07T16:48:17;1.60;;;1.10;;
35679;SDS011;21803;53.586;10.040;2023-05-07T16:50:43;1.30;;;1.02;;
35679;SDS011;21803;53.586;10.040;2023-05-07T16:53:09;1.13;;;0.90;;
35679;SDS011;21803;53.586;10.040;2023-05-07T16:55:35;1.45;;;0.90;;
35679;SDS011;21803;53.586;10.040;2023-05-07T16:58:02;1.27;;;0.80;;
35679;SDS011;21803;53.586;10.040;2023-05-07T17:00:29;2.80;;;0.90;;
35679;SDS011;21803;53.586;10.040;2023-05-07T17:02:54;0.82;;;0.80;;
35679;SDS011;21803;53.586;10.040;2023-05-07T17:05:20;0.90;;;0.80;;
35679;SDS011;21803;53.586;10.040;2023-05-07T17:07:45;1.52;;;1.02;;
35679;SDS011;21803;53.586;10.040;2023-05-07T17:10:11;0.88;;;0.80;;
35679;SDS011;21803;53.586;10.040;2023-05-07T17:12:36;1.02;;;0.90;;
35679;SDS011;21803;53.586;10.040;2023-05-07T17:15:02;1.10;;;1.00;;
35679;SDS011;21803;53.586;10.040;2023-05-07T17:17:28;1.23;;;1.00;;
35679;SDS011;21803;53.586;10.040;2023-05-07T17:19:53;1.45;;;0.80;;
35679;SDS011;21803;53.586;10.040;2023-05-07T17:22:19;0.75;;;0.70;;
35679;SDS011;21803;53.586;10.040;2023-05-07T17:24:44;0.93;;;0.88;;
35679;SDS011;21803;53.586;10.040;2023-05-07T17:27:10;1.30;;;0.95;;
35679;SDS011;21803;53.586;10.040;2023-05-07T17:29:35;1.50;;;1.05;;
35679;SDS011;21803;53.586;10.040;2023-05-07T17:32:01;1.40;;;1.00;;
35679;SDS011;21803;53.586;10.040;2023-05-07T17:34:27;0.88;;;0.80;;
35679;SDS011;21803;53.586;10.040;2023-05-07T17:36:52;1.10;;;0.90;;
35679;SDS011;21803;53.586;10.040;2023-05-07T17:39:18;1.10;;;0.90;;
35679;SDS011;21803;53.586;10.040;2023-05-07T17:41:44;1.20;;;0.70;;
35679;SDS011;21803;53.586;10.040;2023-05-07T17:44:10;0.88;;;0.80;;
35679;SDS011;21803;53.586;10.040;2023-05-07T17:46:35;1.38;;;0.90;;
35679;SDS011;21803;53.586;10.040;2023-05-07T17:49:01;1.25;;;0.90;;
35679;SDS011;21803;53.586;10.040;2023-05-07T17:51:26;2.25;;;1.20;;
35679;SDS011;21803;53.586;10.040;2023-05-07T17:53:53;2.33;;;0.93;;
35679;SDS011;21803;53.586;10.040;2023-05-07T17:56:20;1.30;;;0.90;;
35679;SDS011;21803;53.586;10.040;2023-05-07T17:58:45;1.10;;;0.90;;
35679;SDS011;21803;53.586;10.040;2023-05-07T18:01:11;0.90;;;0.80;;
35679;SDS011;21803;53.586;10.040;2023-05-07T18:03:36;1.33;;;0.98;;
35679;SDS011;21803;53.586;10.040;2023-05-07T18:06:02;1.30;;;0.98;;
35679;SDS011;21803;53.586;10.040;2023-05-07T18:08:27;0.88;;;0.77;;
35679;SDS011;21803;53.586;10.040;2023-05-07T18:10:53;0.90;;;0.80;;
35679;SDS011;21803;53.586;10.040;2023-05-07T18:13:18;1.63;;;0.80;;
35679;SDS011;21803;53.586;10.040;2023-05-07T18:15:44;1.02;;;0.90;;
35679;SDS011;21803;53.586;10.040;2023-05-07T18:18:10;1.17;;;1.02;;
35679;SDS011;21803;53.586;10.040;2023-05-07T18:20:36;1.02;;;0.93;;
35679;SDS011;21803;53.586;10.040;2023-05-07T18:23:02;1.05;;;0.95;;
35679;SDS011;21803;53.586;10.040;2023-05-07T18:25:28;1.15;;;0.88;;
35679;SDS011;21803;53.586;10.040;2023-05-07T18:27:54;1.40;;;0.65;;
35679;SDS011;21803;53.586;10.040;2023-05-07T18:30:20;1.55;;;0.80;;
35679;SDS011;21803;53.586;10.040;2023-05-07T18:32:46;1.40;;;0.77;;
35679;SDS011;21803;53.586;10.040;2023-05-07T18:35:12;1.15;;;0.90;;
35679;SDS011;21803;53.586;10.040;2023-05-07T18:37:37;1.00;;;0.80;;
35679;SDS011;21803;53.586;10.040;2023-05-07T18:40:03;1.10;;;1.00;;
35679;SDS011;21803;53.586;10.040;2023-05-07T18:42:29;0.70;;;0.70;;
35679;SDS011;21803;53.586;10.040;2023-05-07T18:44:55;1.10;;;0.95;;
35679;SDS011;21803;53.586;10.040;2023-05-07T18:47:21;1.70;;;0.88;;
35679;SDS011;21803;53.586;10.040;2023-05-07T18:49:47;0.93;;;0.85;;